首页
METAR-TAF:

METAR-TAF

机场 :

迪本多夫, 瑞士

纬度: 47-23-55N, 经度: 8-38-53E, 海拔: 448米

当前天气观测

该预报发布于23分钟前的05:50 UTC
风速2节,风向东转东南
温度 -1°C
湿度 93%
气压 1016 hPa
能見度: 8000
少量云层高于3200英尺

METAR: LSMD 190550Z 11002KT 8000 FEW032 M01/M02 Q1016 RMK BLU+

时间: 07:13 (06:13 UTC)


TAF: 丢失

超过4000个机场的气象观测和天气预报(METAR&TAF报告)。

可查询的气象台以黄色和红色小点在地图上表示。

将鼠标移到小点上方,可查看气象台名称。

然后点击查看天气观测和预报。

如需切换地图:点击带黑十字的绿色按钮放大地图;点击带横线的绿色按钮缩小地图;或者点击绿色箭头查看邻近地区的地图。


METAR-TAF: